Time;durP1;ratioP1;P1;durP2;ratioP2;P2;SDS_P1;SDS_P2;PMS_P1;PMS_P2;Temp;Humidity;BMP_temperature;BMP_pressure;BME280_temperature;BME280_humidity;BME280_pressure;Samples;Min_cycle;Max_cycle;Signal;HPM_P1;HPM_P2
2021/07/01 00:01:35;;;;;;;13.40;11.60;;;;;;;17.45;78.51;100545.22;5057181;28;20821;-65
2021/07/01 00:04:01;;;;;;;12.40;11.10;;;;;;;17.20;78.93;100541.38;5057262;28;20197;-64
2021/07/01 00:06:26;;;;;;;14.07;11.50;;;;;;;17.31;78.94;100544.66;5037855;28;20575;-64
2021/07/01 00:08:51;;;;;;;12.30;11.10;;;;;;;17.07;79.35;100544.25;5037349;28;20186;-64
2021/07/01 00:11:17;;;;;;;11.13;10.13;;;;;;;17.17;79.15;100540.56;5037854;28;20353;-64
2021/07/01 00:13:42;;;;;;;11.13;9.80;;;;;;;17.31;78.92;100549.94;5037364;28;20192;-64
2021/07/01 00:16:07;;;;;;;10.83;9.37;;;;;;;17.23;78.40;100541.31;5037320;28;20182;-64
2021/07/01 00:18:32;;;;;;;12.17;9.70;;;;;;;17.33;78.88;100537.56;5037584;28;20434;-64
2021/07/01 00:20:58;;;;;;;11.27;10.00;;;;;;;17.07;79.53;100539.00;5037255;28;20261;-63
2021/07/01 00:23:23;;;;;;;10.37;8.90;;;;;;;17.34;78.52;100545.44;5037161;28;20186;-63
2021/07/01 00:25:48;;;;;;;10.43;9.33;;;;;;;17.47;78.21;100543.41;5037878;28;20264;-63
2021/07/01 00:28:14;;;;;;;10.93;9.83;;;;;;;17.10;79.06;100551.25;5037131;28;20182;-63
2021/07/01 00:30:39;;;;;;;11.63;9.87;;;;;;;17.36;77.88;100540.16;5038225;28;20213;-65
2021/07/01 00:33:04;;;;;;;11.67;10.43;;;;;;;16.92;79.44;100537.53;5037370;28;20178;-65
2021/07/01 00:35:30;;;;;;;10.50;9.40;;;;;;;17.06;79.22;100542.56;5037473;28;20459;-66
2021/07/01 00:37:55;;;;;;;12.00;9.83;;;;;;;17.00;78.73;100538.25;5037995;28;20194;-67
2021/07/01 00:40:20;;;;;;;9.90;8.90;;;;;;;17.08;79.13;100538.09;5043133;28;20181;-65
2021/07/01 00:42:46;;;;;;;10.87;9.77;;;;;;;17.21;78.28;100544.00;5060383;28;20174;-65
2021/07/01 00:45:11;;;;;;;20.80;17.70;;;;;;;17.32;78.12;100533.22;5060644;28;20276;-64
2021/07/01 00:47:37;;;;;;;19.50;15.00;;;;;;;17.43;77.34;100525.94;5060878;28;20185;-64
2021/07/01 00:50:05;;;;;;;14.60;11.67;;;;;;;17.49;77.72;100517.91;5060697;28;20231;-64
2021/07/01 00:52:30;;;;;;;12.73;11.43;;;;;;;17.51;77.79;100524.00;5052324;28;20189;-65
2021/07/01 00:54:57;;;;;;;12.60;11.30;;;;;;;17.54;77.65;100525.69;5040889;28;20399;-64
2021/07/01 00:57:22;;;;;;;18.00;14.87;;;;;;;17.47;77.22;100524.97;5040497;28;20170;-65
2021/07/01 00:59:47;;;;;;;12.60;11.30;;;;;;;17.39;78.07;100520.78;5050314;28;20814;-65
2021/07/01 01:02:13;;;;;;;17.77;12.33;;;;;;;17.37;78.37;100525.22;5059890;28;20162;-65
2021/07/01 01:04:38;;;;;;;14.43;12.87;;;;;;;17.48;77.68;100521.44;5060322;28;20524;-64
2021/07/01 01:07:04;;;;;;;21.57;15.80;;;;;;;17.48;77.93;100515.28;5055074;28;20170;-64
2021/07/01 01:09:29;;;;;;;15.50;13.07;;;;;;;17.55;77.62;100522.16;5049173;28;20185;-64
2021/07/01 01:11:54;;;;;;;15.47;13.00;;;;;;;17.22;78.88;100515.88;5060098;28;20224;-64
2021/07/01 01:14:20;;;;;;;14.40;11.10;;;;;;;17.35;78.28;100514.72;5060215;28;20170;-65
2021/07/01 01:16:45;;;;;;;13.43;12.13;;;;;;;17.10;78.70;100520.50;5059880;28;20222;-65
2021/07/01 01:19:11;;;;;;;14.40;11.80;;;;;;;17.22;78.62;100518.50;5060173;28;20181;-65
2021/07/01 01:21:37;;;;;;;13.50;12.00;;;;;;;17.28;78.75;100521.03;5059254;28;20174;-65
2021/07/01 01:24:04;;;;;;;15.57;13.17;;;;;;;17.21;78.91;100514.13;5042112;28;20468;-65
2021/07/01 01:26:30;;;;;;;12.70;11.37;;;;;;;17.26;78.53;100512.28;5040003;28;20178;-66
2021/07/01 01:28:56;;;;;;;14.27;11.57;;;;;;;17.36;78.22;100507.66;5040166;28;20637;-65
2021/07/01 01:31:22;;;;;;;16.10;12.50;;;;;;;17.72;76.46;100511.22;5039262;28;20331;-65
2021/07/01 01:33:49;;;;;;;19.90;12.20;;;;;;;17.46;77.23;100502.16;5039697;28;20890;-65
2021/07/01 01:36:15;;;;;;;13.80;12.13;;;;;;;17.01;79.36;100507.53;5053994;28;20532;-65
2021/07/01 01:38:40;;;;;;;15.60;12.27;;;;;;;17.34;78.62;100507.69;5059782;28;20519;-65
2021/07/01 01:41:05;;;;;;;14.00;12.50;;;;;;;17.17;79.46;100505.44;5059785;28;20177;-65
2021/07/01 01:43:31;;;;;;;16.53;14.10;;;;;;;17.49;77.63;100503.84;5060014;28;20173;-64
2021/07/01 01:45:56;;;;;;;18.30;15.10;;;;;;;17.53;77.42;100504.66;5059464;28;20236;-64
2021/07/01 01:48:22;;;;;;;24.10;18.67;;;;;;;17.62;77.28;100501.81;5059529;28;20182;-64
2021/07/01 01:50:47;;;;;;;16.80;13.53;;;;;;;17.26;78.52;100499.97;5059355;28;20193;-64
2021/07/01 01:53:13;;;;;;;15.67;13.97;;;;;;;17.29;78.84;100496.38;5039346;28;20178;-65
2021/07/01 01:55:38;;;;;;;20.37;16.10;;;;;;;17.41;78.65;100501.38;5039470;28;20198;-64
2021/07/01 01:58:04;;;;;;;15.70;14.10;;;;;;;17.36;78.80;100495.38;5041875;28;20590;-65
2021/07/01 02:00:29;;;;;;;16.40;13.00;;;;;;;17.35;78.65;100496.25;5059205;28;20200;-65
2021/07/01 02:02:55;;;;;;;19.37;16.80;;;;;;;17.42;78.62;100489.94;5059088;28;20410;-64
2021/07/01 02:05:21;;;;;;;16.30;13.53;;;;;;;17.40;78.51;100494.41;5059363;28;20477;-65
2021/07/01 02:07:46;;;;;;;18.07;14.53;;;;;;;17.32;79.11;100491.06;5058378;28;20404;-64
2021/07/01 02:10:18;;;;;;;17.00;14.23;;;;;;;17.38;78.21;100493.56;5059004;28;20202;-64
2021/07/01 02:12:43;;;;;;;15.20;13.70;;;;;;;17.41;78.53;100482.94;5059411;28;20158;-64
2021/07/01 02:15:11;;;;;;;16.07;14.37;;;;;;;17.14;79.02;100487.94;5058838;28;20387;-64
2021/07/01 02:17:36;;;;;;;17.37;14.23;;;;;;;17.14;79.50;100484.41;5058828;28;20219;-64
2021/07/01 02:20:18;;;;;;;20.87;17.13;;;;;;;17.20;78.48;100488.69;5050596;28;20665;-64
2021/07/01 02:22:44;;;;;;;16.40;14.30;;;;;;;17.41;78.46;100488.19;5038648;28;20536;-64
2021/07/01 02:25:09;;;;;;;19.13;17.07;;;;;;;17.04;79.57;100491.66;5038683;28;20511;-65
2021/07/01 02:27:36;;;;;;;20.37;14.90;;;;;;;17.01;79.86;100497.00;5038722;28;20409;-65
2021/07/01 02:30:04;;;;;;;16.20;14.53;;;;;;;17.16;79.20;100494.03;5038577;28;20198;-65
2021/07/01 02:32:29;;;;;;;17.87;15.57;;;;;;;16.98;79.65;100497.03;5039018;28;20409;-65
2021/07/01 02:34:56;;;;;;;18.67;16.23;;;;;;;17.16;78.87;100490.53;5038668;28;20779;-65
2021/07/01 02:37:22;;;;;;;17.73;15.90;;;;;;;16.96;79.80;100490.97;5038623;28;20171;-65
2021/07/01 02:39:48;;;;;;;17.67;15.83;;;;;;;17.06;79.29;100495.13;5039009;28;20470;-64
2021/07/01 02:42:14;;;;;;;16.03;14.43;;;;;;;17.03;79.49;100495.19;5038374;28;20403;-64
2021/07/01 02:44:39;;;;;;;16.90;15.17;;;;;;;17.22;79.20;100497.44;5038434;28;20169;-64
2021/07/01 02:47:05;;;;;;;17.10;15.30;;;;;;;17.10;79.28;100496.81;5038957;28;20532;-64
2021/07/01 02:49:30;;;;;;;21.73;19.53;;;;;;;17.05;79.53;100495.16;5038476;28;20182;-65
2021/07/01 02:51:55;;;;;;;19.57;17.47;;;;;;;17.12;79.53;100502.03;5038245;28;20544;-64
2021/07/01 02:54:21;;;;;;;18.37;16.47;;;;;;;16.79;80.72;100494.78;5038999;28;20162;-64
2021/07/01 02:56:47;;;;;;;20.03;17.77;;;;;;;17.10;79.44;100499.44;5056992;28;20263;-64
2021/07/01 02:59:14;;;;;;;18.83;16.70;;;;;;;16.79;80.69;100492.13;5058043;28;20427;-65
2021/07/01 03:01:40;;;;;;;18.70;16.30;;;;;;;17.07;79.37;100496.00;5057611;28;20162;-65
2021/07/01 03:04:06;;;;;;;18.17;16.17;;;;;;;17.03;80.16;100499.59;5057756;28;20503;-65
2021/07/01 03:06:31;;;;;;;17.13;15.33;;;;;;;17.22;78.79;100497.44;5057997;28;20395;-66
2021/07/01 03:08:58;;;;;;;16.20;14.60;;;;;;;17.23;78.90;100499.19;5057599;28;20442;-65
2021/07/01 03:11:25;;;;;;;16.50;14.73;;;;;;;17.21;78.61;100490.44;5057846;28;20288;-66
2021/07/01 03:13:51;;;;;;;17.03;14.97;;;;;;;17.25;78.69;100492.97;5056804;28;20386;-65
2021/07/01 03:16:19;;;;;;;16.27;14.43;;;;;;;17.34;78.25;100491.88;5052445;28;20436;-66
2021/07/01 03:18:44;;;;;;;17.03;15.00;;;;;;;17.34;78.00;100494.53;5038116;28;20683;-65
2021/07/01 03:21:10;;;;;;;17.00;15.17;;;;;;;17.27;78.84;100485.03;5038126;28;20428;-65
2021/07/01 03:23:35;;;;;;;18.10;16.20;;;;;;;17.42;77.94;100487.31;5037958;28;20213;-65
2021/07/01 03:26:01;;;;;;;18.83;16.57;;;;;;;17.11;79.16;100498.53;5038078;28;20185;-65
2021/07/01 03:28:26;;;;;;;19.07;16.40;;;;;;;17.22;78.68;100489.53;5037852;28;20189;-65
2021/07/01 03:30:51;;;;;;;19.10;16.60;;;;;;;17.15;78.33;100487.00;5037844;28;20202;-65
2021/07/01 03:33:17;;;;;;;17.17;15.13;;;;;;;16.96;78.95;100493.59;5037689;28;20184;-65
2021/07/01 03:35:42;;;;;;;15.13;13.33;;;;;;;17.11;79.62;100492.41;5037693;28;20166;-65
2021/07/01 03:38:07;;;;;;;14.37;12.97;;;;;;;17.06;79.11;100495.13;5038244;28;20489;-65
2021/07/01 03:40:33;;;;;;;14.53;13.13;;;;;;;16.61;80.20;100501.25;5037805;28;20176;-65
2021/07/01 03:42:58;;;;;;;14.17;12.77;;;;;;;16.93;79.90;100486.63;5038107;28;20166;-65
2021/07/01 03:45:23;;;;;;;16.70;13.37;;;;;;;17.05;79.26;100479.34;5049669;28;20182;-63
2021/07/01 03:47:49;;;;;;;14.67;13.17;;;;;;;17.02;79.33;100482.06;5057645;28;20207;-64
2021/07/01 03:50:14;;;;;;;16.13;12.07;;;;;;;17.06;78.25;100484.59;5058073;28;20200;-65
2021/07/01 03:52:39;;;;;;;17.80;12.67;;;;;;;17.03;78.61;100483.78;5057605;28;20213;-64
2021/07/01 03:55:05;;;;;;;12.97;11.07;;;;;;;16.91;79.12;100487.53;5057566;28;20173;-64
2021/07/01 03:57:30;;;;;;;11.57;10.37;;;;;;;17.06;78.89;100492.50;5057888;28;20165;-64
2021/07/01 03:59:56;;;;;;;11.80;10.60;;;;;;;17.24;78.08;100485.06;5057474;28;20547;-65
2021/07/01 04:02:21;;;;;;;12.63;10.50;;;;;;;17.01;78.62;100486.47;5057461;28;20223;-66
2021/07/01 04:04:46;;;;;;;10.90;9.83;;;;;;;16.75;79.42;100484.31;5057992;28;20169;-65
2021/07/01 04:07:11;;;;;;;9.87;8.87;;;;;;;16.69;79.25;100482.69;5057438;28;20538;-64
2021/07/01 04:09:37;;;;;;;10.00;9.00;;;;;;;16.78;79.25;100484.28;5057426;28;20197;-64
2021/07/01 04:12:02;;;;;;;11.40;9.77;;;;;;;17.07;78.15;100488.94;5057901;28;20207;-65
2021/07/01 04:14:28;;;;;;;10.67;8.90;;;;;;;16.86;79.00;100485.00;5039497;28;20452;-64
2021/07/01 04:16:53;;;;;;;9.50;8.60;;;;;;;16.58;79.65;100488.16;5041304;28;20174;-64
2021/07/01 04:19:18;;;;;;;10.30;9.27;;;;;;;16.66;79.86;100483.59;5041759;28;20162;-65
2021/07/01 04:21:44;;;;;;;12.30;8.27;;;;;;;16.92;78.97;100484.03;5041157;28;20185;-65
2021/07/01 04:24:09;;;;;;;8.83;7.93;;;;;;;16.75;79.58;100479.94;5044911;28;20233;-65
2021/07/01 04:26:35;;;;;;;9.00;8.10;;;;;;;16.90;79.27;100483.16;5061889;28;20267;-65
2021/07/01 04:29:00;;;;;;;9.10;7.90;;;;;;;16.99;78.66;100486.50;5053420;28;20196;-64
2021/07/01 04:31:26;;;;;;;10.00;9.00;;;;;;;17.00;78.33;100482.09;5040873;28;20228;-64
2021/07/01 04:33:52;;;;;;;10.43;9.40;;;;;;;16.68;79.90;100486.19;5041076;28;20249;-64
2021/07/01 04:36:17;;;;;;;8.53;7.73;;;;;;;16.76;79.75;100483.44;5041017;28;20425;-65
2021/07/01 04:38:43;;;;;;;8.90;8.10;;;;;;;16.72;79.95;100482.63;5061548;28;20172;-64
2021/07/01 04:41:08;;;;;;;8.37;7.57;;;;;;;17.00;79.05;100485.56;5064027;28;20227;-64
2021/07/01 04:43:33;;;;;;;9.30;8.20;;;;;;;17.03;78.72;100482.00;5060644;28;20621;-65
2021/07/01 04:45:59;;;;;;;8.90;8.00;;;;;;;17.16;77.45;100480.00;5059944;28;20165;-64
2021/07/01 04:48:24;;;;;;;8.33;7.53;;;;;;;16.89;79.17;100479.69;5060970;28;20181;-64
2021/07/01 04:50:49;;;;;;;7.50;6.90;;;;;;;16.89;78.58;100489.31;5060467;28;20273;-65
2021/07/01 04:53:15;;;;;;;7.70;7.00;;;;;;;16.96;79.31;100499.72;5060485;28;20170;-65
2021/07/01 04:55:40;;;;;;;7.83;7.13;;;;;;;17.07;78.50;100493.38;5060264;28;20170;-65
2021/07/01 04:58:05;;;;;;;8.37;7.57;;;;;;;17.06;78.48;100495.13;5060576;28;20272;-64
2021/07/01 05:00:34;;;;;;;7.63;6.93;;;;;;;16.89;79.09;100498.13;5055203;28;20192;-64
2021/07/01 05:02:59;;;;;;;7.67;6.90;;;;;;;16.82;79.42;100486.81;5039865;28;20174;-65
2021/07/01 05:05:25;;;;;;;6.90;6.20;;;;;;;16.78;79.07;100492.19;5043640;28;20451;-65
2021/07/01 05:07:50;;;;;;;6.70;6.10;;;;;;;16.82;79.82;100486.81;5039991;28;20221;-65
2021/07/01 05:10:15;;;;;;;7.70;7.00;;;;;;;17.04;78.82;100489.03;5045375;28;20202;-64
2021/07/01 05:12:41;;;;;;;7.03;6.43;;;;;;;17.12;78.47;100492.34;5040346;28;20536;-65
2021/07/01 05:15:07;;;;;;;8.13;7.43;;;;;;;17.00;78.96;100492.63;5043158;28;20178;-65
2021/07/01 05:17:35;;;;;;;8.43;6.83;;;;;;;16.77;79.56;100490.44;5040490;28;20166;-65
2021/07/01 05:20:01;;;;;;;7.10;6.50;;;;;;;16.79;79.59;100493.88;5040527;28;20443;-66
2021/07/01 05:22:26;;;;;;;7.00;6.40;;;;;;;17.06;78.42;100489.88;5039870;28;20444;-65
2021/07/01 05:24:51;;;;;;;6.80;6.10;;;;;;;16.92;78.80;100502.44;5041079;28;20230;-65
2021/07/01 05:27:17;;;;;;;6.27;5.77;;;;;;;17.12;78.27;100496.78;5039854;28;20174;-65
2021/07/01 05:29:42;;;;;;;6.47;5.97;;;;;;;17.05;78.35;100500.41;5043274;28;20517;-63
2021/07/01 05:32:07;;;;;;;7.37;6.10;;;;;;;16.93;79.26;100499.78;5039809;28;20178;-65
2021/07/01 05:34:33;;;;;;;6.00;5.50;;;;;;;17.37;77.43;100493.59;5039798;28;20559;-65
2021/07/01 05:36:58;;;;;;;6.43;5.93;;;;;;;17.39;77.54;100495.28;5040169;28;20175;-65
2021/07/01 05:39:23;;;;;;;5.93;5.43;;;;;;;17.38;77.90;100495.34;5041282;28;20277;-64
2021/07/01 05:41:49;;;;;;;4.90;4.50;;;;;;;17.40;77.66;100498.78;5039348;28;20177;-65
2021/07/01 05:44:14;;;;;;;6.73;6.13;;;;;;;17.48;77.19;100500.34;5039918;28;20163;-64
2021/07/01 05:46:40;;;;;;;7.80;5.10;;;;;;;17.35;77.70;100498.91;5039585;28;20170;-65
2021/07/01 05:49:05;;;;;;;6.43;4.97;;;;;;;17.26;78.07;100496.47;5039582;28;20171;-65
2021/07/01 05:51:33;;;;;;;5.13;4.73;;;;;;;17.16;78.39;100501.94;5039983;28;20193;-65
2021/07/01 05:56:26;;;;;;;6.03;5.43;;;;;;;17.39;77.40;100499.72;5039943;28;20508;-65
2021/07/01 05:58:53;;;;;;;5.27;4.60;;;;;;;17.20;78.34;100501.84;5054522;28;20498;-65
2021/07/01 06:01:18;;;;;;;5.17;4.70;;;;;;;17.47;77.51;100505.66;5041467;28;20174;-65
2021/07/01 06:03:43;;;;;;;5.23;4.50;;;;;;;17.49;77.15;100515.28;5053974;28;20445;-66
2021/07/01 06:06:11;;;;;;;5.47;4.50;;;;;;;17.61;77.08;100507.97;5044252;28;20186;-65
2021/07/01 06:08:37;;;;;;;4.53;4.13;;;;;;;17.64;76.65;100507.91;5066122;28;20274;-66
2021/07/01 06:11:06;;;;;;;11.60;3.93;;;;;;;17.64;76.62;100505.25;5067418;28;20486;-65
2021/07/01 06:13:35;;;;;;;4.17;3.77;;;;;;;17.45;77.02;100510.09;5043491;28;20186;-64
2021/07/01 06:16:00;;;;;;;4.40;4.00;;;;;;;17.60;77.24;100506.25;5040931;28;20448;-66
2021/07/01 06:18:26;;;;;;;5.20;4.70;;;;;;;17.72;76.45;100505.94;5037942;28;20504;-65
2021/07/01 06:20:51;;;;;;;4.20;3.80;;;;;;;17.71;76.55;100509.50;5039068;28;20169;-67
2021/07/01 06:23:17;;;;;;;4.20;3.80;;;;;;;17.43;77.72;100506.66;5056594;28;20205;-66
2021/07/01 06:25:43;;;;;;;4.47;4.03;;;;;;;17.58;77.26;100502.78;5044923;28;20238;-66
2021/07/01 06:28:12;;;;;;;4.50;4.10;;;;;;;17.62;77.39;100502.66;5038998;28;20163;-66
2021/07/01 06:30:38;;;;;;;5.47;3.90;;;;;;;17.61;76.89;100510.63;5038453;28;20896;-66
2021/07/01 06:33:05;;;;;;;4.50;3.70;;;;;;;17.72;76.82;100518.28;5039372;28;20452;-66
2021/07/01 06:35:31;;;;;;;3.70;3.40;;;;;;;17.65;77.64;100517.56;5047333;28;20224;-66
2021/07/01 06:38:00;;;;;;;4.33;3.93;;;;;;;17.79;76.76;100514.56;5057488;28;20451;-67
2021/07/01 06:40:29;;;;;;;3.93;3.63;;;;;;;17.75;76.70;100512.91;5066782;28;20204;-66
2021/07/01 06:42:55;;;;;;;4.73;3.90;;;;;;;17.99;76.27;100516.75;5064342;28;20706;-67
2021/07/01 06:45:21;;;;;;;7.90;4.40;;;;;;;18.02;76.98;100514.03;5051591;28;20455;-66
2021/07/01 06:47:48;;;;;;;4.63;4.17;;;;;;;18.40;74.90;100517.50;5048152;28;20264;-66
2021/07/01 06:50:15;;;;;;;4.47;4.07;;;;;;;18.44;74.50;100518.25;5057349;28;20748;-65
2021/07/01 06:52:44;;;;;;;4.67;4.27;;;;;;;18.54;75.20;100518.88;5047743;28;20448;-67
2021/07/01 06:55:14;;;;;;;6.10;4.80;;;;;;;18.21;75.39;100521.50;5041418;28;20834;-66
2021/07/01 06:57:40;;;;;;;4.93;4.53;;;;;;;18.43;74.88;100527.97;5037835;28;20500;-68
2021/07/01 07:00:07;;;;;;;5.10;4.70;;;;;;;18.20;76.01;100530.31;5044027;28;20713;-70
2021/07/01 07:02:33;;;;;;;23.23;5.23;;;;;;;18.27;75.83;100526.63;5055900;28;20528;-68
2021/07/01 07:05:03;;;;;;;4.80;4.50;;;;;;;17.73;77.01;100526.13;5057819;28;20770;-68
2021/07/01 07:07:28;;;;;;;5.40;4.97;;;;;;;18.14;76.27;100532.22;5057838;28;20169;-67
2021/07/01 07:09:54;;;;;;;7.37;5.23;;;;;;;18.28;76.03;100528.34;5056550;28;20470;-66
2021/07/01 07:12:19;;;;;;;5.83;5.20;;;;;;;18.17;76.58;100532.16;5043222;28;20401;-66
2021/07/01 07:14:44;;;;;;;5.70;5.20;;;;;;;18.31;76.26;100536.22;5063298;28;20458;-66
2021/07/01 07:17:11;;;;;;;6.17;5.27;;;;;;;18.22;76.38;100531.16;5067054;28;20181;-66
2021/07/01 07:19:38;;;;;;;18.77;6.17;;;;;;;18.43;75.41;100533.25;5055488;28;20235;-66
2021/07/01 07:22:03;;;;;;;10.00;6.20;;;;;;;18.24;76.79;100526.69;5040803;28;20528;-67
2021/07/01 07:24:29;;;;;;;7.00;6.30;;;;;;;18.45;76.20;100535.84;5048779;28;20594;-66
2021/07/01 07:26:55;;;;;;;8.57;5.80;;;;;;;18.31;76.97;100538.84;5039064;28;20208;-65
2021/07/01 07:29:22;;;;;;;8.63;5.53;;;;;;;18.78;75.88;100533.19;5040150;28;20419;-66
2021/07/01 07:31:48;;;;;;;7.40;5.70;;;;;;;18.79;76.00;100537.56;5039232;28;20480;-66
2021/07/01 07:34:14;;;;;;;8.23;5.60;;;;;;;18.89;75.51;100532.91;5039716;28;20451;-66
2021/07/01 07:36:39;;;;;;;6.30;5.80;;;;;;;18.82;75.86;100535.72;5045610;28;20396;-66
2021/07/01 07:39:06;;;;;;;6.10;5.60;;;;;;;18.76;75.77;100535.88;5048103;28;20444;-67
2021/07/01 07:41:31;;;;;;;5.67;5.17;;;;;;;18.79;76.22;100541.06;5037524;28;20473;-68
2021/07/01 07:43:57;;;;;;;5.30;4.90;;;;;;;19.17;74.27;100538.28;5037534;28;20421;-66
2021/07/01 07:46:25;;;;;;;6.37;5.77;;;;;;;18.89;75.46;100546.13;5039662;28;20506;-66
2021/07/01 07:48:51;;;;;;;5.80;5.30;;;;;;;18.92;75.53;100540.78;5040383;28;20197;-66
2021/07/01 07:51:17;;;;;;;7.30;5.70;;;;;;;19.00;76.08;100538.78;5041785;28;20452;-67
2021/07/01 07:53:47;;;;;;;5.50;5.10;;;;;;;19.52;75.16;100545.16;5041485;28;20417;-68
2021/07/01 07:56:15;;;;;;;6.17;5.67;;;;;;;19.61;73.62;100532.56;5041969;28;20486;-68
2021/07/01 07:58:43;;;;;;;6.47;5.97;;;;;;;19.47;73.98;100532.97;5045123;28;20452;-67
2021/07/01 08:01:10;;;;;;;5.87;5.47;;;;;;;19.56;73.91;100532.69;5059680;28;20451;-67
2021/07/01 08:03:37;;;;;;;5.60;5.20;;;;;;;19.73;73.22;100540.09;5061017;28;20416;-66
2021/07/01 08:06:05;;;;;;;7.13;6.10;;;;;;;19.46;74.29;100542.69;5059813;28;20418;-66
2021/07/01 08:08:31;;;;;;;6.40;5.90;;;;;;;19.45;74.74;100543.59;5049057;28;20417;-68
2021/07/01 08:10:58;;;;;;;6.17;5.57;;;;;;;19.93;72.88;100546.56;5058771;28;20472;-67
2021/07/01 08:13:24;;;;;;;6.07;5.47;;;;;;;19.45;74.48;100553.31;5046399;28;20472;-67
2021/07/01 08:15:50;;;;;;;7.10;6.50;;;;;;;19.88;73.73;100546.72;5077037;28;20445;-66
2021/07/01 08:18:38;;;;;;;7.70;6.90;;;;;;;19.80;74.01;100543.44;5043954;28;20448;-67
2021/07/01 08:21:03;;;;;;;6.17;5.57;;;;;;;20.21;72.72;100546.50;5042571;28;20179;-67
2021/07/01 08:23:29;;;;;;;6.90;6.20;;;;;;;19.71;74.77;100549.84;5040329;28;20440;-67
2021/07/01 08:25:54;;;;;;;7.77;7.03;;;;;;;19.70;75.44;100548.16;5040739;28;20178;-67
2021/07/01 08:28:21;;;;;;;7.23;6.50;;;;;;;19.80;75.86;100552.25;5056644;28;20200;-67
2021/07/01 08:30:47;;;;;;;9.20;6.70;;;;;;;19.84;74.44;100548.59;5059363;28;20201;-66
2021/07/01 08:33:13;;;;;;;7.47;6.87;;;;;;;20.29;74.21;100556.84;5041968;28;20436;-66
2021/07/01 08:35:38;;;;;;;15.87;14.30;;;;;;;20.45;71.96;100551.91;5040327;28;20170;-66
2021/07/01 08:38:04;;;;;;;12.10;11.00;;;;;;;20.42;73.26;100562.59;5038558;28;20482;-65
2021/07/01 08:40:35;;;;;;;7.53;6.93;;;;;;;20.62;72.74;100548.66;5039611;28;20182;-66
2021/07/01 08:43:02;;;;;;;7.53;6.83;;;;;;;20.57;73.00;100547.97;5056476;28;20212;-66
2021/07/01 08:45:40;;;;;;;18.27;16.47;;;;;;;20.68;72.92;100554.63;5049418;28;20889;-67
2021/07/01 08:48:17;;;;;;;8.60;7.80;;;;;;;20.78;72.09;100554.31;5045970;28;20454;-67
2021/07/01 08:50:50;;;;;;;7.80;7.10;;;;;;;20.75;71.70;100557.06;5045886;28;20514;-66
2021/07/01 08:53:46;;;;;;;7.70;7.10;;;;;;;20.76;71.33;100557.03;5043139;28;20535;-66
2021/07/01 08:56:13;;;;;;;8.43;7.70;;;;;;;20.96;71.31;100552.78;5053107;28;20443;-67
2021/07/01 08:58:48;;;;;;;10.63;9.73;;;;;;;20.92;71.54;100549.38;5048746;28;20477;-67
2021/07/01 09:01:21;;;;;;;9.43;8.63;;;;;;;20.96;71.47;100545.69;5042584;28;20736;-68
2021/07/01 09:03:47;;;;;;;9.17;8.23;;;;;;;21.10;70.66;100555.78;5039922;28;20476;-67
2021/07/01 09:06:27;;;;;;;9.27;8.37;;;;;;;21.04;70.76;100558.69;5044532;28;20467;-66
2021/07/01 09:08:53;;;;;;;11.20;9.27;;;;;;;20.84;71.13;100559.41;5060133;28;20561;-66
2021/07/01 09:11:20;;;;;;;8.77;8.07;;;;;;;20.94;71.44;100562.56;5047759;28;20476;-65
2021/07/01 09:13:48;;;;;;;13.53;12.23;;;;;;;20.71;72.12;100555.47;5060242;28;20439;-65
2021/07/01 09:16:16;;;;;;;12.70;10.83;;;;;;;20.52;74.11;100562.22;5064346;28;20467;-65
2021/07/01 09:18:44;;;;;;;12.70;10.63;;;;;;;20.76;72.43;100567.63;5039833;28;20427;-66
2021/07/01 09:21:10;;;;;;;9.43;8.73;;;;;;;20.44;73.64;100569.56;5039850;28;20499;-66
2021/07/01 09:23:36;;;;;;;11.80;10.60;;;;;;;20.45;74.41;100571.28;5043819;28;20477;-65
2021/07/01 09:26:03;;;;;;;12.40;10.20;;;;;;;20.74;74.51;100572.09;5058085;28;20467;-64
2021/07/01 09:28:29;;;;;;;10.07;9.07;;;;;;;20.82;72.74;100575.34;5046292;28;20705;-65
2021/07/01 09:30:56;;;;;;;9.33;8.63;;;;;;;20.67;72.86;100566.13;5039453;28;20465;-70
2021/07/01 09:33:21;;;;;;;12.20;10.70;;;;;;;20.93;73.22;100577.63;5040084;28;20186;-65
2021/07/01 09:35:47;;;;;;;10.33;9.23;;;;;;;20.58;73.60;100565.56;5039366;28;20470;-66
2021/07/01 09:38:13;;;;;;;9.17;8.20;;;;;;;20.94;72.70;100573.19;5058454;28;20217;-66
2021/07/01 09:40:39;;;;;;;8.60;7.90;;;;;;;21.16;71.19;100566.16;5043909;28;20174;-67
2021/07/01 09:43:06;;;;;;;9.10;8.40;;;;;;;21.13;71.21;100568.91;5039882;28;20498;-64
2021/07/01 09:45:34;;;;;;;9.83;8.93;;;;;;;20.97;71.91;100573.06;5045626;28;20184;-65
2021/07/01 09:48:12;;;;;;;9.53;8.70;;;;;;;21.45;70.69;100573.94;5056959;28;20610;-67
2021/07/01 09:50:45;;;;;;;11.27;8.90;;;;;;;21.27;71.88;100576.38;5054174;28;20475;-67
2021/07/01 09:53:15;;;;;;;10.60;9.57;;;;;;;21.47;70.73;100574.75;5051680;28;20444;-67
2021/07/01 09:55:42;;;;;;;9.97;9.13;;;;;;;21.53;71.56;100575.41;5040501;28;20436;-66
2021/07/01 09:58:10;;;;;;;13.10;9.07;;;;;;;21.70;70.24;100566.78;5052177;28;20476;-66
2021/07/01 10:00:36;;;;;;;9.50;8.70;;;;;;;21.40;71.44;100578.56;5056809;28;20443;-66
2021/07/01 10:03:03;;;;;;;9.80;8.90;;;;;;;22.10;68.48;100580.22;5039152;28;20753;-66
2021/07/01 10:05:28;;;;;;;9.20;8.40;;;;;;;21.99;68.97;100575.38;5042891;28;20441;-66
2021/07/01 10:07:54;;;;;;;9.67;8.77;;;;;;;22.68;67.44;100578.75;5044815;28;20446;-65
2021/07/01 10:10:21;;;;;;;9.00;8.27;;;;;;;22.94;66.05;100572.25;5055469;28;20233;-65
2021/07/01 10:12:55;;;;;;;8.77;7.97;;;;;;;23.17;65.45;100573.91;5076496;28;20421;-65
2021/07/01 10:15:29;;;;;;;9.10;8.30;;;;;;;22.84;65.50;100573.59;5078030;28;20722;-66
2021/07/01 10:18:06;;;;;;;8.30;7.60;;;;;;;23.51;63.12;100575.00;5076349;28;20419;-66
2021/07/01 10:20:37;;;;;;;8.07;7.27;;;;;;;24.03;61.93;100573.44;5038076;28;20496;-66
2021/07/01 10:23:03;;;;;;;9.03;8.23;;;;;;;24.23;60.86;100576.94;5038236;28;20749;-65
2021/07/01 10:25:32;;;;;;;7.63;6.93;;;;;;;23.60;62.97;100579.03;5038039;28;20514;-65
2021/07/01 10:28:12;;;;;;;6.83;6.23;;;;;;;23.50;62.08;100577.72;5038180;28;20425;-64
2021/07/01 10:30:39;;;;;;;7.00;6.40;;;;;;;23.46;61.10;100582.34;5037969;28;20878;-64
2021/07/01 10:33:05;;;;;;;8.70;7.37;;;;;;;23.16;62.45;100577.50;5037856;28;20507;-65
2021/07/01 10:35:35;;;;;;;8.57;7.77;;;;;;;22.99;63.54;100582.72;5038698;28;20709;-65
2021/07/01 10:38:03;;;;;;;7.00;6.40;;;;;;;23.24;62.00;100579.81;5038056;28;20178;-65
2021/07/01 10:40:30;;;;;;;8.53;7.73;;;;;;;22.94;63.63;100582.03;5038320;28;20448;-66
2021/07/01 10:42:56;;;;;;;6.70;6.03;;;;;;;22.85;62.17;100580.63;5037963;28;20487;-64
2021/07/01 10:45:22;;;;;;;7.27;6.57;;;;;;;23.47;59.75;100580.53;5044032;28;20502;-65
2021/07/01 10:47:48;;;;;;;7.20;6.50;;;;;;;22.88;61.62;100580.53;5046035;28;20177;-65
2021/07/01 10:50:20;;;;;;;7.30;6.60;;;;;;;23.58;59.65;100577.38;5037728;28;20452;-65
2021/07/01 10:52:46;;;;;;;7.17;6.57;;;;;;;24.05;59.36;100588.41;5039909;28;20184;-66
2021/07/01 10:55:13;;;;;;;7.90;7.10;;;;;;;24.27;58.42;100589.16;5048774;28;20788;-65
2021/07/01 10:57:52;;;;;;;7.17;6.57;;;;;;;23.73;59.56;100592.59;5037502;28;20188;-64
2021/07/01 11:00:18;;;;;;;6.00;5.60;;;;;;;23.59;60.84;100581.78;5044510;28;20444;-65
2021/07/01 11:02:49;;;;;;;8.53;7.83;;;;;;;23.34;62.16;100590.88;5043618;28;20455;-65
2021/07/01 11:05:15;;;;;;;7.40;6.70;;;;;;;23.04;63.48;100591.31;5056177;28;20176;-65
2021/07/01 11:07:45;;;;;;;7.30;6.70;;;;;;;23.56;61.11;100590.75;5038620;28;20428;-65
2021/07/01 11:10:12;;;;;;;6.87;6.30;;;;;;;23.60;61.01;100594.13;5046047;28;20219;-66
2021/07/01 11:12:43;;;;;;;15.33;13.70;;;;;;;23.36;60.18;100586.38;5043092;28;20483;-66
2021/07/01 11:15:08;;;;;;;8.33;7.53;;;;;;;23.41;61.06;100588.81;5069272;28;20414;-66
2021/07/01 11:17:36;;;;;;;8.47;7.57;;;;;;;23.72;60.04;100596.22;5049673;28;20698;-66
2021/07/01 11:20:17;;;;;;;13.80;6.70;;;;;;;23.69;60.70;100593.69;5053044;28;20189;-63